SXS6TK EGKK-LTBS
Flight info
| Callsign | SXS6TK |
|---|---|
| Flight time | N/A |
| Altitude | 35000 |
| Route | MIMFO Y312 DVR UL9 KONAN DCT KOK DCT REMBA DCT SPI DCT ULNOK DCT VIBOM DCT NOMBO DCT RIDAR DCT RADIZ DCT GORPA DCT DEVUL DCT LIKVI DCT REMSO DCT MEDUX UM867 KOGAT DCT DISOR DCT FSK DCT RIKSO UP14 ODNOD/N0442F270 T491 SONUP |
| Aircraft | B738/M-SDE2E3FGHIRWXY/LB1 |
Departure
| Time | N/A |
|---|---|
| Airport | London Gatwick Airport (EGKK) |
Arrival
| Time | 2026-05-03 22:05 |
|---|---|
| Airport | Dalaman International Airport (LTBS) |
| Time | Latitude | Longitude | Altitude | Speed | Heading |
|---|---|---|---|---|---|
| 2026-05-03 20:15 | 45.26945 | 16.20849 | 35093 ft | 480 kts | 128° |
| 2026-05-03 20:15 | 45.22650 | 16.28029 | 35094 ft | 480 kts | 128° |
| 2026-05-03 20:16 | 45.18321 | 16.35248 | 35088 ft | 480 kts | 128° |
| 2026-05-03 20:16 | 45.13988 | 16.42456 | 35101 ft | 481 kts | 128° |
| 2026-05-03 20:17 | 45.09598 | 16.49603 | 35105 ft | 481 kts | 129° |
| 2026-05-03 20:17 | 45.05152 | 16.56612 | 35096 ft | 482 kts | 129° |
| 2026-05-03 20:18 | 45.00666 | 16.63662 | 35115 ft | 482 kts | 129° |
| 2026-05-03 20:18 | 44.96182 | 16.70723 | 35107 ft | 483 kts | 129° |
| 2026-05-03 20:19 | 44.91696 | 16.77787 | 35112 ft | 484 kts | 129° |
| 2026-05-03 20:19 | 44.87227 | 16.84809 | 35119 ft | 484 kts | 129° |
| 2026-05-03 20:20 | 44.82719 | 16.91873 | 35121 ft | 485 kts | 129° |
| 2026-05-03 20:20 | 44.78194 | 16.98943 | 35122 ft | 486 kts | 129° |
| 2026-05-03 20:21 | 44.73662 | 17.06008 | 35124 ft | 487 kts | 129° |
| 2026-05-03 20:21 | 44.69119 | 17.13071 | 35124 ft | 487 kts | 129° |
| 2026-05-03 20:22 | 44.64596 | 17.20086 | 35136 ft | 488 kts | 129° |
| 2026-05-03 20:22 | 44.60036 | 17.27141 | 35132 ft | 488 kts | 129° |
| 2026-05-03 20:23 | 44.55468 | 17.34189 | 35140 ft | 489 kts | 129° |
| 2026-05-03 20:23 | 44.50891 | 17.41235 | 35144 ft | 489 kts | 129° |
| 2026-05-03 20:24 | 44.46339 | 17.48225 | 35152 ft | 489 kts | 129° |
| 2026-05-03 20:24 | 44.41751 | 17.55252 | 35128 ft | 490 kts | 129° |
| 2026-05-03 20:25 | 44.37153 | 17.62275 | 35132 ft | 489 kts | 129° |
| 2026-05-03 20:25 | 44.32589 | 17.69232 | 35136 ft | 489 kts | 129° |
| 2026-05-03 20:26 | 44.27989 | 17.76224 | 35135 ft | 488 kts | 129° |
| 2026-05-03 20:26 | 44.23401 | 17.83182 | 35135 ft | 487 kts | 129° |
| 2026-05-03 20:27 | 44.18807 | 17.90134 | 35131 ft | 487 kts | 129° |
| 2026-05-03 20:27 | 44.14233 | 17.97040 | 35135 ft | 487 kts | 129° |
| 2026-05-03 20:28 | 44.09665 | 18.03907 | 35129 ft | 487 kts | 129° |
| 2026-05-03 20:28 | 44.05054 | 18.10808 | 35146 ft | 487 kts | 129° |
| 2026-05-03 20:29 | 44.00441 | 18.17699 | 35141 ft | 487 kts | 129° |
| 2026-05-03 20:29 | 43.95831 | 18.24571 | 35161 ft | 486 kts | 129° |
| 2026-05-03 20:30 | 43.91248 | 18.31389 | 35163 ft | 486 kts | 129° |
| 2026-05-03 20:30 | 43.86651 | 18.38211 | 35160 ft | 486 kts | 129° |
| 2026-05-03 20:31 | 43.82016 | 18.45071 | 35166 ft | 486 kts | 129° |
| 2026-05-03 20:31 | 43.77397 | 18.51892 | 35152 ft | 486 kts | 129° |
| 2026-05-03 20:32 | 43.72806 | 18.58655 | 35156 ft | 485 kts | 129° |
| 2026-05-03 20:32 | 43.68343 | 18.65215 | 35163 ft | 486 kts | 129° |
| 2026-05-03 20:33 | 43.63694 | 18.72031 | 35164 ft | 487 kts | 129° |
| 2026-05-03 20:33 | 43.59038 | 18.78842 | 35158 ft | 488 kts | 129° |
| 2026-05-03 20:34 | 43.54413 | 18.85592 | 35157 ft | 488 kts | 129° |
| 2026-05-03 20:34 | 43.49725 | 18.92419 | 35153 ft | 488 kts | 129° |
| 2026-05-03 20:35 | 43.45068 | 18.99220 | 35143 ft | 487 kts | 129° |
| 2026-05-03 20:35 | 43.40537 | 19.05971 | 35157 ft | 486 kts | 128° |
| 2026-05-03 20:36 | 43.35992 | 19.12756 | 35154 ft | 485 kts | 129° |
| 2026-05-03 20:36 | 43.31415 | 19.19556 | 35165 ft | 484 kts | 129° |
| 2026-05-03 20:37 | 43.26835 | 19.26334 | 35159 ft | 484 kts | 129° |
| 2026-05-03 20:37 | 43.22255 | 19.33091 | 35168 ft | 484 kts | 129° |
| 2026-05-03 20:38 | 43.17662 | 19.39852 | 35169 ft | 484 kts | 128° |
| 2026-05-03 20:38 | 43.13125 | 19.46515 | 35172 ft | 484 kts | 128° |
| 2026-05-03 20:39 | 43.08504 | 19.53286 | 35182 ft | 484 kts | 129° |
| 2026-05-03 20:39 | 43.03920 | 19.59988 | 35196 ft | 485 kts | 129° |
| 2026-05-03 20:40 | 42.99290 | 19.66740 | 35203 ft | 485 kts | 129° |
| 2026-05-03 20:40 | 42.94704 | 19.73412 | 35191 ft | 486 kts | 129° |
| 2026-05-03 20:41 | 42.90129 | 19.80054 | 35191 ft | 487 kts | 128° |
| 2026-05-03 20:41 | 42.85494 | 19.86766 | 35194 ft | 487 kts | 129° |
| 2026-05-03 20:42 | 42.80847 | 19.93482 | 35196 ft | 487 kts | 129° |
| 2026-05-03 20:42 | 42.76192 | 20.00195 | 35196 ft | 488 kts | 129° |
| 2026-05-03 20:43 | 42.71736 | 20.07040 | 35190 ft | 485 kts | 124° |
| 2026-05-03 20:43 | 42.67482 | 20.14144 | 35198 ft | 485 kts | 124° |
| 2026-05-03 20:44 | 42.63232 | 20.21263 | 35189 ft | 485 kts | 124° |
| 2026-05-03 20:44 | 42.59022 | 20.28226 | 35183 ft | 484 kts | 124° |
| 2026-05-03 20:45 | 42.54735 | 20.35259 | 35187 ft | 485 kts | 124° |
| 2026-05-03 20:45 | 42.50427 | 20.42306 | 35181 ft | 485 kts | 124° |
| 2026-05-03 20:46 | 42.46114 | 20.49345 | 35188 ft | 486 kts | 124° |
| 2026-05-03 20:46 | 42.41797 | 20.56377 | 35185 ft | 486 kts | 124° |
| 2026-05-03 20:47 | 42.37500 | 20.63362 | 35175 ft | 486 kts | 124° |
| 2026-05-03 20:47 | 42.33169 | 20.70384 | 35184 ft | 487 kts | 124° |
| 2026-05-03 20:48 | 42.28830 | 20.77403 | 35197 ft | 487 kts | 124° |
| 2026-05-03 20:48 | 42.24478 | 20.84426 | 35187 ft | 487 kts | 124° |
| 2026-05-03 20:49 | 42.20123 | 20.91440 | 35197 ft | 488 kts | 124° |
| 2026-05-03 20:49 | 42.15784 | 20.98411 | 35208 ft | 489 kts | 124° |
| 2026-05-03 20:50 | 42.11412 | 21.05438 | 35190 ft | 488 kts | 122° |
| 2026-05-03 20:50 | 42.07534 | 21.12862 | 35202 ft | 484 kts | 117° |
| 2026-05-03 20:51 | 42.03872 | 21.20403 | 35205 ft | 484 kts | 117° |
| 2026-05-03 20:51 | 42.00179 | 21.27957 | 35206 ft | 485 kts | 117° |
| 2026-05-03 20:52 | 41.96424 | 21.35523 | 35205 ft | 487 kts | 118° |
| 2026-05-03 20:52 | 41.92635 | 21.43095 | 35200 ft | 489 kts | 118° |
| 2026-05-03 20:53 | 41.88831 | 21.50673 | 35197 ft | 490 kts | 118° |
| 2026-05-03 20:53 | 41.85039 | 21.58212 | 35193 ft | 491 kts | 118° |
| 2026-05-03 20:54 | 41.81219 | 21.65788 | 35198 ft | 490 kts | 118° |
| 2026-05-03 20:54 | 41.75498 | 21.77101 | 35196 ft | 487 kts | 118° |
| 2026-05-03 20:55 | 41.71699 | 21.84594 | 35188 ft | 486 kts | 118° |
| 2026-05-03 20:55 | 41.67931 | 21.92006 | 35176 ft | 484 kts | 118° |
| 2026-05-03 20:56 | 41.64145 | 21.99436 | 35182 ft | 483 kts | 118° |
| 2026-05-03 20:56 | 41.60362 | 22.06841 | 35177 ft | 481 kts | 118° |
| 2026-05-03 20:57 | 41.56587 | 22.14213 | 35179 ft | 480 kts | 118° |
| 2026-05-03 20:57 | 41.52810 | 22.21574 | 35174 ft | 480 kts | 118° |
| 2026-05-03 20:58 | 41.49060 | 22.28862 | 35178 ft | 480 kts | 118° |
| 2026-05-03 20:58 | 41.45276 | 22.36199 | 35175 ft | 480 kts | 119° |
| 2026-05-03 20:59 | 41.41493 | 22.43517 | 35166 ft | 479 kts | 119° |
| 2026-05-03 20:59 | 41.37704 | 22.50830 | 35166 ft | 480 kts | 119° |
| 2026-05-03 21:00 | 41.34550 | 22.56904 | 35173 ft | 480 kts | 119° |
| 2026-05-03 21:00 | 41.30147 | 22.65363 | 35152 ft | 481 kts | 119° |
| 2026-05-03 21:01 | 41.26309 | 22.72721 | 35148 ft | 482 kts | 119° |
| 2026-05-03 21:01 | 41.22266 | 22.79859 | 35163 ft | 486 kts | 125° |
| 2026-05-03 21:02 | 41.17861 | 22.86668 | 35149 ft | 486 kts | 126° |
| 2026-05-03 21:02 | 41.13496 | 22.93441 | 35144 ft | 486 kts | 125° |
| 2026-05-03 21:03 | 41.09141 | 23.00291 | 35141 ft | 486 kts | 125° |
| 2026-05-03 21:03 | 41.04831 | 23.07177 | 35145 ft | 485 kts | 125° |
| 2026-05-03 21:04 | 41.00536 | 23.14078 | 35144 ft | 486 kts | 125° |
| 2026-05-03 21:04 | 40.96227 | 23.20979 | 35137 ft | 486 kts | 125° |
| 2026-05-03 21:05 | 40.91943 | 23.27811 | 35140 ft | 486 kts | 126° |
| 2026-05-03 21:05 | 40.87624 | 23.34679 | 35148 ft | 485 kts | 126° |
| 2026-05-03 21:06 | 40.83306 | 23.41530 | 35147 ft | 485 kts | 126° |
| 2026-05-03 21:06 | 40.78990 | 23.48362 | 35142 ft | 484 kts | 126° |
| 2026-05-03 21:07 | 40.74709 | 23.55124 | 35148 ft | 483 kts | 126° |
| 2026-05-03 21:07 | 40.70406 | 23.61908 | 35151 ft | 482 kts | 126° |
| 2026-05-03 21:08 | 40.66106 | 23.68670 | 35150 ft | 481 kts | 127° |
| 2026-05-03 21:08 | 40.61812 | 23.75409 | 35150 ft | 480 kts | 127° |
| 2026-05-03 21:09 | 40.57549 | 23.82084 | 35153 ft | 479 kts | 127° |
| 2026-05-03 21:09 | 40.53261 | 23.88785 | 35154 ft | 479 kts | 127° |
| 2026-05-03 21:10 | 40.48968 | 23.95477 | 35144 ft | 479 kts | 127° |
| 2026-05-03 21:10 | 40.44672 | 24.02160 | 35151 ft | 479 kts | 127° |
| 2026-05-03 21:11 | 40.40372 | 24.08835 | 35147 ft | 479 kts | 127° |
| 2026-05-03 21:11 | 40.36095 | 24.15461 | 35147 ft | 479 kts | 128° |
| 2026-05-03 21:12 | 40.31783 | 24.22125 | 35147 ft | 480 kts | 128° |
| 2026-05-03 21:12 | 40.27459 | 24.28794 | 35149 ft | 481 kts | 128° |
| 2026-05-03 21:13 | 40.23123 | 24.35466 | 35149 ft | 481 kts | 128° |
| 2026-05-03 21:13 | 40.18818 | 24.42077 | 35148 ft | 481 kts | 128° |
| 2026-05-03 21:14 | 40.14478 | 24.48727 | 35145 ft | 480 kts | 128° |
| 2026-05-03 21:14 | 40.10138 | 24.55362 | 35146 ft | 480 kts | 128° |
| 2026-05-03 21:15 | 40.05797 | 24.61985 | 35145 ft | 480 kts | 128° |
| 2026-05-03 21:15 | 40.01453 | 24.68599 | 35143 ft | 480 kts | 128° |
| 2026-05-03 21:16 | 39.97138 | 24.75154 | 35143 ft | 480 kts | 128° |
| 2026-05-03 21:16 | 39.92789 | 24.81746 | 35131 ft | 480 kts | 128° |
| 2026-05-03 21:17 | 39.89184 | 24.87202 | 35129 ft | 480 kts | 128° |
| 2026-05-03 21:17 | 39.84081 | 24.94906 | 35110 ft | 480 kts | 129° |
| 2026-05-03 21:18 | 39.79747 | 25.01435 | 35117 ft | 480 kts | 129° |
| 2026-05-03 21:18 | 39.75382 | 25.07997 | 35122 ft | 480 kts | 129° |
| 2026-05-03 21:19 | 39.71009 | 25.14556 | 35115 ft | 480 kts | 129° |
| 2026-05-03 21:19 | 39.66631 | 25.21109 | 35109 ft | 480 kts | 129° |
| 2026-05-03 21:20 | 39.62276 | 25.27614 | 35120 ft | 481 kts | 129° |
| 2026-05-03 21:20 | 39.57884 | 25.34161 | 35119 ft | 481 kts | 129° |
| 2026-05-03 21:21 | 39.53486 | 25.40703 | 35113 ft | 482 kts | 129° |
| 2026-05-03 21:21 | 39.49080 | 25.47242 | 35110 ft | 482 kts | 129° |
| 2026-05-03 21:22 | 39.44669 | 25.53776 | 35108 ft | 482 kts | 129° |
| 2026-05-03 21:22 | 39.40280 | 25.60265 | 35095 ft | 483 kts | 130° |
| 2026-05-03 21:23 | 39.35855 | 25.66794 | 35092 ft | 483 kts | 130° |
| 2026-05-03 21:23 | 39.31427 | 25.73311 | 35081 ft | 482 kts | 130° |
| 2026-05-03 21:24 | 39.26998 | 25.79815 | 35085 ft | 482 kts | 130° |
| 2026-05-03 21:24 | 39.22599 | 25.86265 | 35083 ft | 482 kts | 130° |
| 2026-05-03 21:25 | 39.18172 | 25.92740 | 35070 ft | 481 kts | 130° |
| 2026-05-03 21:25 | 39.13742 | 25.99207 | 35068 ft | 481 kts | 130° |
| 2026-05-03 21:26 | 39.09316 | 26.05657 | 35063 ft | 480 kts | 130° |
| 2026-05-03 21:26 | 39.04891 | 26.12089 | 35054 ft | 480 kts | 130° |
| 2026-05-03 21:27 | 39.00499 | 26.18462 | 35048 ft | 479 kts | 130° |
| 2026-05-03 21:27 | 38.96074 | 26.24869 | 35034 ft | 479 kts | 130° |
| 2026-05-03 21:28 | 38.91654 | 26.31259 | 35031 ft | 478 kts | 130° |
| 2026-05-03 21:28 | 38.87231 | 26.37639 | 35024 ft | 478 kts | 130° |
| 2026-05-03 21:29 | 38.83654 | 26.44746 | 35023 ft | 474 kts | 111° |
| 2026-05-03 21:29 | 38.81988 | 26.52802 | 35035 ft | 471 kts | 97° |
| 2026-05-03 21:30 | 38.81061 | 26.61108 | 35015 ft | 471 kts | 97° |
| 2026-05-03 21:30 | 38.80095 | 26.69412 | 35005 ft | 471 kts | 97° |
| 2026-05-03 21:31 | 38.79078 | 26.77642 | 34997 ft | 470 kts | 98° |
| 2026-05-03 21:31 | 38.78042 | 26.85920 | 34986 ft | 470 kts | 98° |
| 2026-05-03 21:32 | 38.76784 | 26.94132 | 34975 ft | 471 kts | 107° |
| 2026-05-03 21:32 | 38.73894 | 27.01640 | 34964 ft | 473 kts | 125° |
| 2026-05-03 21:33 | 38.69912 | 27.08332 | 34964 ft | 473 kts | 127° |
| 2026-05-03 21:33 | 38.65918 | 27.14945 | 34949 ft | 473 kts | 127° |
| 2026-05-03 21:34 | 38.61941 | 27.21638 | 34953 ft | 473 kts | 126° |
| 2026-05-03 21:34 | 38.57979 | 27.28348 | 34940 ft | 473 kts | 126° |
| 2026-05-03 21:35 | 38.54035 | 27.35012 | 34937 ft | 473 kts | 126° |
| 2026-05-03 21:35 | 38.50055 | 27.41714 | 34925 ft | 474 kts | 126° |
| 2026-05-03 21:36 | 38.46066 | 27.48412 | 34923 ft | 474 kts | 127° |
| 2026-05-03 21:36 | 38.42078 | 27.55099 | 34912 ft | 474 kts | 127° |
| 2026-05-03 21:37 | 38.38110 | 27.61740 | 34905 ft | 474 kts | 127° |
| 2026-05-03 21:37 | 38.34104 | 27.68432 | 34894 ft | 475 kts | 127° |
| 2026-05-03 21:38 | 38.30093 | 27.75120 | 34889 ft | 475 kts | 127° |
| 2026-05-03 21:38 | 38.25860 | 27.81569 | 34874 ft | 476 kts | 136° |
| 2026-05-03 21:39 | 38.20575 | 27.86638 | 34879 ft | 477 kts | 145° |
| 2026-05-03 21:39 | 38.15127 | 27.91396 | 34446 ft | 487 kts | 145° |
| 2026-05-03 21:40 | 38.12319 | 27.93863 | 34028 ft | 485 kts | 144° |
| 2026-05-03 21:40 | 38.09560 | 27.96306 | 33535 ft | 481 kts | 144° |
| 2026-05-03 21:40 | 38.06860 | 27.98711 | 33010 ft | 480 kts | 144° |
| 2026-05-03 21:40 | 38.04140 | 28.01142 | 32489 ft | 477 kts | 144° |
| 2026-05-03 21:41 | 38.01434 | 28.03562 | 31977 ft | 474 kts | 144° |
| 2026-05-03 21:41 | 37.98750 | 28.05962 | 31485 ft | 473 kts | 144° |
| 2026-05-03 21:41 | 37.96058 | 28.08366 | 30998 ft | 473 kts | 143° |
| 2026-05-03 21:41 | 37.93400 | 28.10737 | 30527 ft | 474 kts | 143° |
| 2026-05-03 21:42 | 37.90704 | 28.13138 | 30044 ft | 474 kts | 143° |
| 2026-05-03 21:42 | 37.88172 | 28.15390 | 29538 ft | 473 kts | 143° |
| 2026-05-03 21:42 | 37.85448 | 28.17812 | 28948 ft | 473 kts | 143° |
| 2026-05-03 21:42 | 37.82755 | 28.20203 | 28409 ft | 474 kts | 143° |
| 2026-05-03 21:43 | 37.80052 | 28.22601 | 27871 ft | 478 kts | 143° |
| 2026-05-03 21:43 | 37.77318 | 28.25025 | 27328 ft | 479 kts | 143° |
| 2026-05-03 21:43 | 37.74588 | 28.27442 | 26803 ft | 479 kts | 143° |
| 2026-05-03 21:43 | 37.71893 | 28.29826 | 26287 ft | 479 kts | 142° |
| 2026-05-03 21:44 | 37.69165 | 28.32238 | 25779 ft | 479 kts | 142° |
| 2026-05-03 21:44 | 37.66444 | 28.34641 | 25284 ft | 478 kts | 142° |
| 2026-05-03 21:44 | 37.63753 | 28.37015 | 24795 ft | 476 kts | 142° |
| 2026-05-03 21:44 | 37.61065 | 28.39383 | 24315 ft | 469 kts | 142° |
| 2026-05-03 21:45 | 37.58367 | 28.41759 | 23834 ft | 464 kts | 142° |
| 2026-05-03 21:45 | 37.55727 | 28.44084 | 23360 ft | 462 kts | 141° |
| 2026-05-03 21:45 | 37.53184 | 28.46322 | 22796 ft | 460 kts | 142° |
| 2026-05-03 21:45 | 37.50479 | 28.48699 | 22247 ft | 458 kts | 142° |
| 2026-05-03 21:46 | 37.47986 | 28.51062 | 21747 ft | 452 kts | 135° |
| 2026-05-03 21:46 | 37.45766 | 28.53836 | 21254 ft | 448 kts | 130° |
| 2026-05-03 21:46 | 37.43649 | 28.56707 | 20756 ft | 446 kts | 129° |
| 2026-05-03 21:46 | 37.41558 | 28.59577 | 20276 ft | 444 kts | 129° |
| 2026-05-03 21:47 | 37.39460 | 28.62422 | 19792 ft | 442 kts | 130° |
| 2026-05-03 21:47 | 37.37352 | 28.65233 | 19326 ft | 441 kts | 130° |
| 2026-05-03 21:47 | 37.35258 | 28.67989 | 18869 ft | 440 kts | 131° |
| 2026-05-03 21:47 | 37.33124 | 28.70778 | 18401 ft | 438 kts | 131° |
| 2026-05-03 21:48 | 37.31014 | 28.73525 | 17935 ft | 435 kts | 131° |
| 2026-05-03 21:48 | 37.28918 | 28.76251 | 17414 ft | 433 kts | 131° |
| 2026-05-03 21:48 | 37.26858 | 28.78932 | 16914 ft | 431 kts | 131° |
| 2026-05-03 21:48 | 37.24783 | 28.81631 | 16413 ft | 429 kts | 131° |
| 2026-05-03 21:49 | 37.22713 | 28.84321 | 15919 ft | 427 kts | 131° |
| 2026-05-03 21:49 | 37.20501 | 28.86783 | 15444 ft | 427 kts | 146° |
| 2026-05-03 21:49 | 37.17811 | 28.88351 | 15053 ft | 427 kts | 158° |
| 2026-05-03 21:49 | 37.15036 | 28.89672 | 14630 ft | 426 kts | 158° |
| 2026-05-03 21:50 | 37.12278 | 28.91005 | 14219 ft | 424 kts | 158° |
| 2026-05-03 21:50 | 37.09578 | 28.92336 | 13849 ft | 421 kts | 157° |
| 2026-05-03 21:50 | 37.06873 | 28.93689 | 13467 ft | 415 kts | 157° |
| 2026-05-03 21:50 | 37.04222 | 28.95021 | 13066 ft | 406 kts | 157° |
| 2026-05-03 21:51 | 37.01632 | 28.96323 | 12695 ft | 397 kts | 157° |
| 2026-05-03 21:51 | 36.99099 | 28.97594 | 12308 ft | 389 kts | 157° |
| 2026-05-03 21:51 | 36.96614 | 28.98836 | 12012 ft | 379 kts | 158° |
| 2026-05-03 21:51 | 36.94270 | 28.99526 | 11976 ft | 364 kts | 176° |
| 2026-05-03 21:52 | 36.91802 | 28.99283 | 11966 ft | 347 kts | 194° |
| 2026-05-03 21:52 | 36.89522 | 28.98500 | 11983 ft | 333 kts | 198° |
| 2026-05-03 21:52 | 36.87375 | 28.97713 | 11975 ft | 320 kts | 198° |
| 2026-05-03 21:52 | 36.85272 | 28.96960 | 11962 ft | 308 kts | 198° |
| 2026-05-03 21:53 | 36.83252 | 28.96256 | 11966 ft | 295 kts | 197° |
| 2026-05-03 21:53 | 36.81306 | 28.95581 | 11856 ft | 287 kts | 197° |
| 2026-05-03 21:53 | 36.79399 | 28.94924 | 11665 ft | 282 kts | 198° |
| 2026-05-03 21:53 | 36.77514 | 28.94276 | 11432 ft | 279 kts | 198° |
| 2026-05-03 21:54 | 36.75648 | 28.93636 | 11211 ft | 277 kts | 198° |
| 2026-05-03 21:54 | 36.73800 | 28.93002 | 10980 ft | 274 kts | 198° |
| 2026-05-03 21:54 | 36.71992 | 28.92382 | 10754 ft | 272 kts | 198° |
| 2026-05-03 21:54 | 36.70168 | 28.91756 | 10443 ft | 273 kts | 198° |
| 2026-05-03 21:55 | 36.68319 | 28.91122 | 9984 ft | 277 kts | 198° |
| 2026-05-03 21:55 | 36.66454 | 28.90483 | 9522 ft | 280 kts | 198° |
| 2026-05-03 21:55 | 36.64569 | 28.89838 | 9020 ft | 283 kts | 198° |
| 2026-05-03 21:55 | 36.62660 | 28.89185 | 8492 ft | 286 kts | 197° |
| 2026-05-03 21:56 | 36.60740 | 28.88529 | 7977 ft | 286 kts | 197° |
| 2026-05-03 21:56 | 36.58816 | 28.87872 | 7460 ft | 287 kts | 197° |
| 2026-05-03 21:56 | 36.56852 | 28.87200 | 6978 ft | 300 kts | 197° |
| 2026-05-03 21:56 | 36.54859 | 28.86521 | 6505 ft | 300 kts | 197° |
| 2026-05-03 21:57 | 36.52860 | 28.85840 | 6067 ft | 296 kts | 196° |
| 2026-05-03 21:57 | 36.50889 | 28.85169 | 5612 ft | 292 kts | 197° |
| 2026-05-03 21:57 | 36.48941 | 28.84506 | 5163 ft | 289 kts | 197° |
| 2026-05-03 21:57 | 36.47056 | 28.83727 | 4710 ft | 283 kts | 212° |
| 2026-05-03 21:58 | 36.45644 | 28.82120 | 4269 ft | 272 kts | 241° |
| 2026-05-03 21:58 | 36.44994 | 28.80023 | 3850 ft | 260 kts | 266° |
| 2026-05-03 21:58 | 36.45086 | 28.77860 | 3461 ft | 244 kts | 288° |
| 2026-05-03 21:58 | 36.45704 | 28.75976 | 3040 ft | 229 kts | 304° |
| 2026-05-03 21:59 | 36.46778 | 28.74671 | 2816 ft | 206 kts | 332° |
| 2026-05-03 21:59 | 36.47963 | 28.73865 | 2773 ft | 183 kts | 329° |
| 2026-05-03 21:59 | 36.48318 | 28.73578 | 2760 ft | 176 kts | 327° |
| 2026-05-03 21:59 | 36.49829 | 28.72187 | 2761 ft | 156 kts | 336° |
| 2026-05-03 22:00 | 36.50853 | 28.72228 | 2809 ft | 156 kts | 19° |
| 2026-05-03 22:00 | 36.51896 | 28.72674 | 2788 ft | 160 kts | 10° |
| 2026-05-03 22:00 | 36.52964 | 28.73010 | 2788 ft | 158 kts | 11° |
| 2026-05-03 22:00 | 36.54029 | 28.73360 | 2795 ft | 158 kts | 11° |
| 2026-05-03 22:01 | 36.55079 | 28.73714 | 2800 ft | 154 kts | 11° |
| 2026-05-03 22:01 | 36.56065 | 28.74050 | 2778 ft | 140 kts | 11° |
| 2026-05-03 22:01 | 36.56989 | 28.74365 | 2654 ft | 136 kts | 11° |
| 2026-05-03 22:01 | 36.57903 | 28.74676 | 2520 ft | 135 kts | 10° |
| 2026-05-03 22:02 | 36.58837 | 28.74993 | 2297 ft | 141 kts | 11° |
| 2026-05-03 22:02 | 36.59789 | 28.75310 | 2064 ft | 143 kts | 11° |
| 2026-05-03 22:02 | 36.60745 | 28.75678 | 1759 ft | 142 kts | 12° |
| 2026-05-03 22:02 | 36.61681 | 28.76024 | 1455 ft | 137 kts | 9° |
| 2026-05-03 22:03 | 36.62576 | 28.76296 | 1338 ft | 133 kts | 9° |
| 2026-05-03 22:03 | 36.63497 | 28.76583 | 1187 ft | 139 kts | 9° |
| 2026-05-03 22:03 | 36.64429 | 28.76895 | 1203 ft | 138 kts | 11° |
| 2026-05-03 22:03 | 36.65356 | 28.77227 | 1056 ft | 140 kts | 11° |
| 2026-05-03 22:04 | 36.66308 | 28.77547 | 815 ft | 143 kts | 11° |
| 2026-05-03 22:04 | 36.67251 | 28.77856 | 595 ft | 137 kts | 11° |
| 2026-05-03 22:04 | 36.68174 | 28.78170 | 414 ft | 138 kts | 12° |
| 2026-05-03 22:04 | 36.69096 | 28.78495 | 240 ft | 140 kts | 12° |
| 2026-05-03 22:05 | 36.70005 | 28.78799 | 65 ft | 135 kts | 12° |
| 2026-05-03 22:05 | 36.70859 | 28.79085 | 30 ft | 115 kts | 17° |
| 2026-05-03 22:05 | 36.71511 | 28.79315 | 29 ft | 80 kts | 15° |
| 2026-05-03 22:05 | 36.71928 | 28.79455 | 27 ft | 44 kts | 15° |
| 2026-05-03 22:06 | 36.72167 | 28.79538 | 27 ft | 33 kts | 15° |
| 2026-05-03 22:06 | 36.72374 | 28.79608 | 27 ft | 25 kts | 15° |
| 2026-05-03 22:06 | 36.72511 | 28.79653 | 29 ft | 18 kts | 14° |
| 2026-05-03 22:06 | 36.72615 | 28.79661 | 29 ft | 15 kts | 322° |
| 2026-05-03 22:07 | 36.72651 | 28.79548 | 28 ft | 13 kts | 287° |
| 2026-05-03 22:07 | 36.72676 | 28.79444 | 27 ft | 12 kts | 287° |
| 2026-05-03 22:07 | 36.72696 | 28.79342 | 27 ft | 12 kts | 275° |
| 2026-05-03 22:07 | 36.72636 | 28.79285 | 27 ft | 12 kts | 195° |
| 2026-05-03 22:08 | 36.72559 | 28.79257 | 27 ft | 11 kts | 196° |
| 2026-05-03 22:08 | 36.72484 | 28.79231 | 27 ft | 11 kts | 196° |
| 2026-05-03 22:08 | 36.72411 | 28.79205 | 27 ft | 11 kts | 195° |
| 2026-05-03 22:08 | 36.72340 | 28.79181 | 27 ft | 10 kts | 195° |
| 2026-05-03 22:09 | 36.72277 | 28.79151 | 28 ft | 9 kts | 227° |
| 2026-05-03 22:09 | 36.72274 | 28.79122 | 28 ft | 2 kts | 276° |
| 2026-05-03 22:09 | 36.72277 | 28.79102 | 28 ft | 2 kts | 282° |
| 2026-05-03 22:10 | 36.72280 | 28.79090 | 28 ft | 1 kts | 287° |
| 2026-05-03 22:10 | 36.72280 | 28.79089 | 28 ft | 0 kts | 287° |